createdAt,value
2019-04-03T00:01:14.965Z,5.90
2019-04-03T00:03:43.433Z,5.80
2019-04-03T00:06:11.963Z,5.80
2019-04-03T00:08:40.423Z,5.90
2019-04-03T00:11:09.632Z,5.90
2019-04-03T00:13:41.517Z,5.80
2019-04-03T00:16:08.796Z,5.80
2019-04-03T00:18:37.263Z,5.80
2019-04-03T00:21:05.779Z,5.80
2019-04-03T00:23:34.214Z,5.70
2019-04-03T00:26:02.683Z,5.60
2019-04-03T00:28:31.137Z,5.60
2019-04-03T00:30:59.702Z,5.40
2019-04-03T00:33:28.479Z,5.30
2019-04-03T00:35:56.931Z,5.40
2019-04-03T00:38:25.394Z,5.50
2019-04-03T00:40:54.913Z,5.60
2019-04-03T00:43:24.783Z,5.60
2019-04-03T00:45:54.556Z,5.50
2019-04-03T00:48:25.842Z,5.40
2019-04-03T00:50:56.185Z,5.30
2019-04-03T00:53:24.323Z,5.30
2019-04-03T00:55:52.787Z,5.50
2019-04-03T00:58:42.485Z,5.40
2019-04-03T01:01:12.140Z,5.40
2019-04-03T01:03:41.410Z,5.60
2019-04-03T01:06:10.137Z,5.80
2019-04-03T01:08:38.652Z,5.70
2019-04-03T01:11:08.118Z,5.70
2019-04-03T01:13:36.690Z,5.50
2019-04-03T01:16:05.697Z,5.40
2019-04-03T01:18:35.153Z,5.50
2019-04-03T01:21:06.222Z,5.50
2019-04-03T01:23:37.208Z,5.60
2019-04-03T01:26:05.220Z,5.60
2019-04-03T01:28:33.674Z,5.70
2019-04-03T01:31:02.211Z,5.60
2019-04-03T01:33:30.738Z,5.60
2019-04-03T01:35:59.347Z,5.50
2019-04-03T01:38:28.299Z,5.50
2019-04-03T01:40:56.827Z,5.40
2019-04-03T01:43:25.598Z,5.40
2019-04-03T01:45:56.519Z,5.30
2019-04-03T01:48:24.535Z,5.40
2019-04-03T01:50:52.986Z,5.40
2019-04-03T01:53:21.436Z,5.30
2019-04-03T01:55:49.917Z,5.40
2019-04-03T01:58:18.372Z,5.40
2019-04-03T02:00:46.821Z,5.40
2019-04-03T02:03:15.284Z,5.40
2019-04-03T02:05:44.155Z,5.30
2019-04-03T02:08:14.593Z,5.20
2019-04-03T02:10:43.208Z,5.20
2019-04-03T02:13:11.658Z,5.20
2019-04-03T02:15:40.119Z,5.10
2019-04-03T02:18:08.671Z,5.20
2019-04-03T02:20:37.992Z,5.20
2019-04-03T02:23:06.445Z,5.30
2019-04-03T02:25:34.897Z,5.20
2019-04-03T02:28:04.408Z,5.10
2019-04-03T02:30:33.370Z,4.90
2019-04-03T02:33:02.118Z,4.90
2019-04-03T02:35:31.693Z,4.90
2019-04-03T02:38:00.279Z,4.90
2019-04-03T02:40:31.346Z,5.00
2019-04-03T02:42:59.040Z,5.00
2019-04-03T02:45:27.600Z,5.00
2019-04-03T02:47:56.121Z,5.00
2019-04-03T02:50:26.225Z,4.90
2019-04-03T02:52:57.990Z,5.00
2019-04-03T02:55:25.891Z,5.00
2019-04-03T02:57:54.511Z,5.00
2019-04-03T03:00:23.104Z,4.90
2019-04-03T03:02:52.429Z,4.80
2019-04-03T03:05:21.241Z,4.80
2019-04-03T03:07:51.031Z,4.70
2019-04-03T03:10:20.353Z,4.90
2019-04-03T03:12:49.720Z,5.00
2019-04-03T03:15:19.412Z,5.00
2019-04-03T03:17:49.202Z,5.00
2019-04-03T03:20:20.716Z,5.00
2019-04-03T03:22:51.175Z,5.10
2019-04-03T03:25:21.191Z,5.10
2019-04-03T03:27:50.185Z,5.10
2019-04-03T03:30:35.769Z,5.20
2019-04-03T03:32:50.638Z,5.10
2019-04-03T03:35:28.008Z,5.10
2019-04-03T03:37:50.765Z,5.10
2019-04-03T03:40:19.753Z,5.10
2019-04-03T03:42:49.247Z,5.20
2019-04-03T03:45:21.450Z,5.20
2019-04-03T03:47:53.274Z,5.20
2019-04-03T03:50:25.750Z,5.30
2019-04-03T03:52:57.070Z,5.20
2019-04-03T03:55:26.401Z,5.30
2019-04-03T03:57:57.447Z,5.30
2019-04-03T04:00:26.363Z,5.30
2019-04-03T04:02:55.429Z,5.00
2019-04-03T04:05:24.044Z,4.80
2019-04-03T04:07:53.498Z,5.00
2019-04-03T04:10:25.479Z,5.00
2019-04-03T04:12:53.686Z,4.90
2019-04-03T04:15:22.934Z,5.30
2019-04-03T04:17:52.787Z,5.40
2019-04-03T04:20:21.376Z,5.50
2019-04-03T04:22:51.381Z,5.40
2019-04-03T04:25:21.212Z,5.20
2019-04-03T04:27:49.853Z,5.30
2019-04-03T04:30:19.635Z,5.20
2019-04-03T04:32:48.232Z,5.30
2019-04-03T04:35:16.676Z,5.40
2019-04-03T04:37:45.140Z,5.40
2019-04-03T04:40:13.830Z,5.60
2019-04-03T04:42:42.317Z,5.60
2019-04-03T04:45:11.827Z,5.60
2019-04-03T04:47:41.186Z,5.80
2019-04-03T04:50:10.140Z,5.70
2019-04-03T04:52:38.595Z,5.80
2019-04-03T04:55:07.186Z,5.80
2019-04-03T04:57:35.705Z,5.80
2019-04-03T05:00:06.989Z,5.50
2019-04-03T05:02:35.468Z,5.50
2019-04-03T05:05:08.476Z,5.50
2019-04-03T05:07:36.498Z,5.50
2019-04-03T05:10:06.606Z,5.40
2019-04-03T05:12:35.451Z,5.20
2019-04-03T05:15:06.261Z,5.20
2019-04-03T05:17:34.981Z,5.10
2019-04-03T05:20:04.331Z,5.10
2019-04-03T05:22:32.878Z,5.20
2019-04-03T05:25:01.332Z,5.30
2019-04-03T05:27:30.040Z,5.30
2019-04-03T05:29:58.825Z,4.90
2019-04-03T05:32:27.314Z,4.90
2019-04-03T05:34:55.938Z,4.90
2019-04-03T05:37:25.601Z,4.90
2019-04-03T05:39:55.649Z,4.90
2019-04-03T05:42:24.377Z,5.00
2019-04-03T05:44:52.812Z,5.10
2019-04-03T05:47:21.274Z,5.10
2019-04-03T05:49:51.687Z,5.00
2019-04-03T05:52:19.914Z,4.90
2019-04-03T05:54:48.801Z,4.90
2019-04-03T05:57:17.358Z,4.90
2019-04-03T05:59:58.239Z,4.80
2019-04-03T06:02:20.036Z,4.90
2019-04-03T06:04:46.552Z,4.90
2019-04-03T06:07:17.419Z,4.90
2019-04-03T06:09:45.329Z,5.20
2019-04-03T06:12:14.520Z,5.40
2019-04-03T06:14:44.047Z,5.30
2019-04-03T06:17:12.509Z,5.20
2019-04-03T06:19:41.070Z,5.30
2019-04-03T06:22:10.382Z,5.40
2019-04-03T06:24:39.400Z,5.30
2019-04-03T06:27:10.085Z,5.20
2019-04-03T06:29:38.149Z,5.10
2019-04-03T06:32:06.643Z,5.20
2019-04-03T06:34:37.924Z,5.50
2019-04-03T06:37:05.445Z,5.60
2019-04-03T06:39:34.177Z,5.80
2019-04-03T06:42:02.723Z,5.90
2019-04-03T06:44:31.581Z,5.80
2019-04-03T06:47:00.895Z,5.80
2019-04-03T06:49:30.304Z,5.70
2019-04-03T06:51:58.872Z,5.70
2019-04-03T06:54:27.330Z,5.70
2019-04-03T06:56:55.857Z,5.90
2019-04-03T06:59:24.325Z,6.10
2019-04-03T07:01:53.565Z,6.30
2019-04-03T07:04:22.435Z,6.50
2019-04-03T07:06:50.981Z,6.50
2019-04-03T07:09:24.024Z,6.60
2019-04-03T07:11:49.951Z,6.70
2019-04-03T07:14:18.396Z,6.50
2019-04-03T07:16:46.951Z,6.60
2019-04-03T07:19:15.533Z,6.70
2019-04-03T07:21:44.027Z,6.90
2019-04-03T07:24:12.575Z,6.80
2019-04-03T07:26:41.049Z,6.70
2019-04-03T07:29:11.510Z,6.70
2019-04-03T07:31:39.769Z,6.70
2019-04-03T07:34:08.309Z,6.90
2019-04-03T07:36:37.031Z,7.20
2019-04-03T07:39:10.587Z,7.40
2019-04-03T07:41:40.904Z,7.60
2019-04-03T07:44:08.395Z,7.70
2019-04-03T07:46:37.058Z,7.60
2019-04-03T07:49:06.844Z,7.60
2019-04-03T07:51:35.820Z,7.50
2019-04-03T07:54:04.944Z,7.30
2019-04-03T07:56:33.744Z,7.50
2019-04-03T07:59:03.284Z,7.40
2019-04-03T08:01:32.219Z,7.30
2019-04-03T08:04:00.916Z,7.00
2019-04-03T08:06:29.883Z,6.90
2019-04-03T08:09:07.642Z,6.90
2019-04-03T08:11:29.178Z,6.70
2019-04-03T08:13:57.896Z,6.60
2019-04-03T08:16:27.091Z,6.70
2019-04-03T08:18:55.584Z,6.50
2019-04-03T08:21:24.129Z,6.20
2019-04-03T08:23:52.679Z,6.00
2019-04-03T08:26:21.202Z,5.80
2019-04-03T08:28:49.728Z,5.70
2019-04-03T08:31:18.592Z,5.70
2019-04-03T08:33:47.162Z,5.90
2019-04-03T08:36:24.335Z,6.20
2019-04-03T08:38:46.753Z,6.40
2019-04-03T08:41:15.366Z,6.80
2019-04-03T08:43:43.807Z,6.80
2019-04-03T08:46:12.364Z,7.10
2019-04-03T08:48:40.828Z,7.40
2019-04-03T08:51:09.656Z,8.10
2019-04-03T08:53:39.331Z,8.50
2019-04-03T08:56:08.184Z,8.70
2019-04-03T08:58:37.067Z,8.60
2019-04-03T09:01:05.753Z,8.80
2019-04-03T09:03:34.320Z,9.00
2019-04-03T09:06:03.138Z,9.10
2019-04-03T09:08:31.750Z,9.40
2019-04-03T09:11:00.739Z,9.60
2019-04-03T09:13:29.371Z,9.60
2019-04-03T09:15:59.421Z,9.60
2019-04-03T09:18:30.348Z,9.50
2019-04-03T09:20:59.074Z,9.50
2019-04-03T09:23:27.694Z,9.70
2019-04-03T09:25:56.269Z,10.20
2019-04-03T09:28:24.819Z,10.60
2019-04-03T09:30:54.113Z,10.60
2019-04-03T09:33:24.584Z,11.00
2019-04-03T09:35:53.240Z,11.20
2019-04-03T09:38:22.306Z,11.20
2019-04-03T09:40:50.785Z,11.10
2019-04-03T09:43:20.068Z,11.20
2019-04-03T09:45:50.158Z,11.00
2019-04-03T09:48:18.863Z,9.90
2019-04-03T09:50:47.800Z,8.70
2019-04-03T09:53:16.353Z,8.50
2019-04-03T09:55:44.979Z,8.40
2019-04-03T09:58:13.853Z,8.40
2019-04-03T10:00:42.894Z,8.30
2019-04-03T10:03:14.275Z,8.40
2019-04-03T10:05:42.962Z,9.20
2019-04-03T10:08:11.503Z,10.20
2019-04-03T10:10:40.237Z,10.70
2019-04-03T10:13:08.851Z,11.10
2019-04-03T10:15:37.499Z,11.80
2019-04-03T10:18:08.617Z,11.70
2019-04-03T10:20:36.673Z,11.30
2019-04-03T10:23:05.475Z,10.80
2019-04-03T10:25:36.526Z,10.10
2019-04-03T10:28:04.370Z,10.10
2019-04-03T10:30:33.200Z,10.60
2019-04-03T10:33:02.102Z,10.90
2019-04-03T10:35:30.678Z,11.00
2019-04-03T10:37:59.245Z,11.40
2019-04-03T10:40:27.822Z,11.90
2019-04-03T10:42:56.371Z,12.70
2019-04-03T10:45:24.982Z,13.00
2019-04-03T10:47:55.426Z,12.50
2019-04-03T10:50:23.827Z,11.70
2019-04-03T10:52:52.398Z,10.90
2019-04-03T10:55:21.325Z,10.50
2019-04-03T10:57:49.872Z,10.20
2019-04-03T11:00:18.898Z,10.60
2019-04-03T11:02:47.634Z,11.30
2019-04-03T11:05:16.542Z,12.10
2019-04-03T11:07:46.926Z,12.40
2019-04-03T11:10:16.626Z,12.50
2019-04-03T11:12:45.381Z,13.00
2019-04-03T11:15:14.734Z,12.80
2019-04-03T11:17:43.220Z,12.90
2019-04-03T11:20:13.412Z,13.00
2019-04-03T11:22:43.329Z,13.20
2019-04-03T11:25:15.278Z,13.00
2019-04-03T11:27:44.610Z,12.60
2019-04-03T11:30:18.767Z,13.00
2019-04-03T11:32:45.703Z,13.00
2019-04-03T11:35:15.507Z,12.80
2019-04-03T11:37:44.155Z,13.30
2019-04-03T11:40:17.403Z,13.50
2019-04-03T11:42:45.866Z,12.80
2019-04-03T11:45:16.129Z,12.60
2019-04-03T11:47:45.861Z,12.80
2019-04-03T11:50:17.081Z,12.70
2019-04-03T11:52:45.819Z,12.40
2019-04-03T11:55:14.901Z,11.90
2019-04-03T11:57:43.349Z,11.40
2019-04-03T12:00:15.528Z,11.00
2019-04-03T12:02:44.756Z,11.50
2019-04-03T12:05:19.982Z,11.80
2019-04-03T12:07:46.736Z,11.70
2019-04-03T12:10:15.711Z,11.30
2019-04-03T12:12:44.210Z,11.30
2019-04-03T12:15:15.625Z,12.00
2019-04-03T12:17:43.197Z,12.60
2019-04-03T12:20:15.156Z,13.70
2019-04-03T12:22:42.834Z,14.30
2019-04-03T12:25:11.433Z,13.60
2019-04-03T12:27:39.879Z,13.20
2019-04-03T12:30:09.717Z,12.70
2019-04-03T12:32:42.989Z,12.20
2019-04-03T12:35:09.781Z,12.80
2019-04-03T12:37:39.278Z,12.90
2019-04-03T12:40:09.322Z,12.90
2019-04-03T12:42:37.943Z,12.90
2019-04-03T12:45:08.480Z,13.00
2019-04-03T12:47:37.309Z,13.50
2019-04-03T12:50:07.695Z,13.80
2019-04-03T12:52:36.578Z,14.00
2019-04-03T12:55:08.593Z,13.30
2019-04-03T12:57:39.255Z,13.10
2019-04-03T13:00:12.742Z,13.10
2019-04-03T13:02:41.370Z,13.80
2019-04-03T13:05:10.225Z,14.20
2019-04-03T13:07:38.701Z,14.30
2019-04-03T13:10:08.752Z,13.70
2019-04-03T13:12:37.341Z,13.40
2019-04-03T13:15:10.556Z,13.50
2019-04-03T13:17:39.384Z,13.50
2019-04-03T13:20:09.636Z,13.20
2019-04-03T13:22:40.027Z,12.40
2019-04-03T13:25:09.597Z,12.30
2019-04-03T13:27:38.176Z,12.50
2019-04-03T13:30:12.425Z,13.00
2019-04-03T13:32:41.040Z,13.60
2019-04-03T13:35:10.191Z,13.80
2019-04-03T13:37:39.144Z,13.30
2019-04-03T13:40:08.827Z,13.10
2019-04-03T13:42:37.962Z,12.60
2019-04-03T13:45:09.638Z,12.60
2019-04-03T13:47:41.731Z,12.50
2019-04-03T13:50:09.949Z,12.30
2019-04-03T13:52:42.894Z,12.00
2019-04-03T13:55:09.819Z,12.00
2019-04-03T13:57:38.723Z,12.10
2019-04-03T14:00:19.657Z,12.70
2019-04-03T14:02:40.401Z,13.40
2019-04-03T14:05:09.191Z,13.50
2019-04-03T14:07:40.379Z,12.50
2019-04-03T14:10:10.936Z,12.30
2019-04-03T14:12:43.542Z,12.60
2019-04-03T14:15:10.065Z,12.80
2019-04-03T14:17:38.715Z,12.70
2019-04-03T14:20:08.551Z,12.50
2019-04-03T14:22:37.380Z,12.50
2019-04-03T14:25:18.033Z,12.50
2019-04-03T14:27:37.342Z,12.60
2019-04-03T14:30:11.147Z,12.70
2019-04-03T14:32:39.978Z,13.00
2019-04-03T14:35:40.573Z,13.30
2019-04-03T14:37:40.037Z,13.10
2019-04-03T14:40:10.984Z,12.90
2019-04-03T14:42:38.826Z,12.80
2019-04-03T14:45:08.395Z,13.20
2019-04-03T14:47:36.851Z,13.40
2019-04-03T14:50:09.086Z,13.30
2019-04-03T14:52:37.647Z,13.00
2019-04-03T14:55:18.141Z,12.90
2019-04-03T14:57:37.556Z,12.90
2019-04-03T15:00:24.956Z,12.90
2019-04-03T15:02:42.144Z,12.90
2019-04-03T15:05:11.084Z,12.60
2019-04-03T15:07:40.423Z,12.50
2019-04-03T15:10:11.024Z,12.90
2019-04-03T15:12:40.306Z,13.10
2019-04-03T15:15:09.963Z,13.40
2019-04-03T15:17:38.866Z,13.30
2019-04-03T15:20:10.329Z,12.80
2019-04-03T15:22:39.460Z,12.30
2019-04-03T15:25:08.871Z,11.90
2019-04-03T15:27:38.114Z,11.80
2019-04-03T15:30:10.977Z,11.50
2019-04-03T15:32:40.128Z,11.30
2019-04-03T15:35:09.204Z,11.60
2019-04-03T15:37:39.922Z,11.50
2019-04-03T15:40:09.277Z,11.10
2019-04-03T15:42:39.797Z,11.00
2019-04-03T15:45:10.524Z,10.80
2019-04-03T15:47:44.998Z,10.50
2019-04-03T15:50:10.736Z,10.40
2019-04-03T15:52:39.350Z,10.40
2019-04-03T15:55:09.628Z,10.40
2019-04-03T15:57:40.364Z,10.60
2019-04-03T16:00:13.908Z,10.50
2019-04-03T16:02:44.322Z,10.50
2019-04-03T16:05:15.622Z,10.20
2019-04-03T16:07:44.278Z,10.20
2019-04-03T16:10:14.114Z,10.20
2019-04-03T16:12:43.508Z,10.30
2019-04-03T16:15:13.798Z,9.90
2019-04-03T16:17:42.333Z,9.50
2019-04-03T16:20:11.850Z,9.30
2019-04-03T16:22:40.338Z,9.20
2019-04-03T16:25:09.894Z,9.20
2019-04-03T16:27:38.407Z,8.90
2019-04-03T16:30:09.559Z,8.90
2019-04-03T16:32:38.223Z,9.00
2019-04-03T16:35:12.609Z,8.90
2019-04-03T16:37:40.423Z,9.00
2019-04-03T16:40:10.222Z,9.00
2019-04-03T16:42:38.693Z,8.80
2019-04-03T16:45:09.850Z,8.70
2019-04-03T16:47:39.005Z,8.50
2019-04-03T16:50:09.066Z,8.30
2019-04-03T16:52:38.188Z,8.20
2019-04-03T16:55:08.161Z,8.10
2019-04-03T16:57:37.170Z,8.00
2019-04-03T17:00:10.345Z,8.00
2019-04-03T17:02:39.107Z,8.10
2019-04-03T17:05:11.675Z,8.00
2019-04-03T17:07:40.526Z,8.00
2019-04-03T17:10:10.755Z,8.00
2019-04-03T17:12:39.409Z,7.90
2019-04-03T17:15:09.892Z,7.60
2019-04-03T17:17:39.073Z,7.30
2019-04-03T17:20:09.241Z,7.20
2019-04-03T17:22:40.801Z,7.20
2019-04-03T17:25:08.984Z,7.20
2019-04-03T17:27:37.807Z,7.20
2019-04-03T17:30:08.463Z,7.20
2019-04-03T17:32:37.678Z,7.30
2019-04-03T17:35:09.914Z,7.30
2019-04-03T17:37:38.517Z,7.30
2019-04-03T17:40:10.147Z,7.40
2019-04-03T17:42:41.782Z,7.40
2019-04-03T17:45:10.439Z,7.60
2019-04-03T17:47:41.307Z,7.40
2019-04-03T17:50:10.019Z,7.60
2019-04-03T17:52:38.507Z,7.80
2019-04-03T17:55:10.012Z,7.90
2019-04-03T17:57:39.619Z,8.00
2019-04-03T18:00:17.185Z,8.00
2019-04-03T18:02:47.339Z,7.90
2019-04-03T18:05:15.970Z,7.80
2019-04-03T18:07:44.467Z,7.70
2019-04-03T18:10:13.573Z,7.70
2019-04-03T18:12:42.096Z,7.60
2019-04-03T18:15:11.009Z,7.30
2019-04-03T18:17:39.472Z,7.10
2019-04-03T18:20:08.986Z,7.00
2019-04-03T18:22:37.482Z,7.00
2019-04-03T18:25:08.300Z,6.90
2019-04-03T18:27:37.306Z,7.00
2019-04-03T18:30:11.179Z,7.10
2019-04-03T18:32:38.981Z,6.80
2019-04-03T18:35:08.369Z,6.40
2019-04-03T18:37:36.938Z,6.20
2019-04-03T18:40:07.836Z,6.50
2019-04-03T18:42:36.293Z,6.80
2019-04-03T18:45:06.107Z,6.80
2019-04-03T18:47:41.080Z,7.00
2019-04-03T18:50:06.133Z,7.20
2019-04-03T18:52:34.654Z,7.10
2019-04-03T18:55:03.188Z,6.90
2019-04-03T18:57:31.897Z,6.90
2019-04-03T19:00:00.674Z,6.80
2019-04-03T19:02:29.465Z,6.80
2019-04-03T19:05:02.180Z,6.70
2019-04-03T19:07:28.124Z,6.20
2019-04-03T19:10:06.555Z,6.00
2019-04-03T19:12:35.342Z,6.10
2019-04-03T19:14:56.946Z,6.50
2019-04-03T19:17:25.588Z,6.30
2019-04-03T19:20:04.062Z,6.30
2019-04-03T19:22:25.698Z,6.70
2019-04-03T19:24:55.007Z,6.70
2019-04-03T19:27:23.461Z,6.60
2019-04-03T19:29:51.985Z,6.30
2019-04-03T19:32:20.469Z,6.10
2019-04-03T19:34:51.985Z,6.10
2019-04-03T19:37:19.471Z,6.20
2019-04-03T19:39:47.970Z,6.40
2019-04-03T19:42:16.497Z,6.50
2019-04-03T19:44:44.983Z,6.50
2019-04-03T19:47:13.566Z,6.40
2019-04-03T19:49:42.012Z,6.20
2019-04-03T19:52:10.488Z,6.00
2019-04-03T19:54:38.944Z,6.00
2019-04-03T19:57:07.478Z,6.00
2019-04-03T19:59:35.965Z,6.00
2019-04-03T20:02:04.547Z,5.90
2019-04-03T20:04:32.993Z,5.90
2019-04-03T20:07:01.580Z,5.90
2019-04-03T20:09:32.184Z,5.90
2019-04-03T20:12:00.495Z,6.00
2019-04-03T20:14:29.102Z,5.90
2019-04-03T20:16:58.553Z,5.90
2019-04-03T20:19:27.360Z,5.80
2019-04-03T20:21:56.266Z,5.70
2019-04-03T20:24:25.388Z,5.80
2019-04-03T20:26:54.488Z,5.80
2019-04-03T20:29:22.969Z,5.60
2019-04-03T20:31:51.443Z,5.60
2019-04-03T20:34:19.960Z,5.60
2019-04-03T20:36:51.034Z,5.50
2019-04-03T20:39:18.690Z,5.60
2019-04-03T20:41:47.131Z,5.40
2019-04-03T20:44:17.366Z,5.40
2019-04-03T20:46:45.877Z,5.50
2019-04-03T20:49:14.763Z,5.50
2019-04-03T20:51:43.252Z,5.50
2019-04-03T20:54:12.032Z,5.50
2019-04-03T20:56:40.888Z,5.30
2019-04-03T20:59:12.089Z,5.20
2019-04-03T21:01:39.610Z,5.20
2019-04-03T21:04:08.050Z,5.20
2019-04-03T21:06:37.405Z,5.40
2019-04-03T21:09:07.327Z,5.50
2019-04-03T21:11:35.771Z,5.60
2019-04-03T21:14:05.739Z,5.30
2019-04-03T21:16:34.598Z,5.30
2019-04-03T21:19:03.042Z,5.30
2019-04-03T21:21:33.040Z,5.20
2019-04-03T21:24:03.997Z,5.20
2019-04-03T21:26:33.088Z,5.10
2019-04-03T21:29:01.570Z,5.00
2019-04-03T21:31:30.022Z,5.00
2019-04-03T21:34:01.593Z,5.00
2019-04-03T21:36:28.660Z,4.90
2019-04-03T21:38:57.108Z,5.00
2019-04-03T21:41:25.565Z,5.10
2019-04-03T21:43:55.421Z,5.30
2019-04-03T21:46:24.420Z,5.00
2019-04-03T21:48:52.862Z,4.80
2019-04-03T21:51:21.583Z,4.80
2019-04-03T21:53:50.110Z,5.00
2019-04-03T21:56:18.557Z,5.10
2019-04-03T21:58:47.108Z,5.10
2019-04-03T22:01:20.798Z,5.20
2019-04-03T22:03:51.400Z,4.90
2019-04-03T22:06:20.107Z,4.80
2019-04-03T22:08:51.353Z,4.90
2019-04-03T22:11:19.045Z,4.80
2019-04-03T22:13:47.669Z,4.80
2019-04-03T22:16:16.188Z,4.80
2019-04-03T22:18:44.640Z,5.00
2019-04-03T22:21:13.204Z,5.20
2019-04-03T22:23:41.986Z,5.30
2019-04-03T22:26:10.506Z,5.30
2019-04-03T22:28:39.068Z,5.30
2019-04-03T22:31:07.720Z,5.30
2019-04-03T22:33:36.164Z,5.40
2019-04-03T22:36:05.068Z,5.40
2019-04-03T22:38:36.947Z,5.10
2019-04-03T22:41:03.824Z,5.00
2019-04-03T22:43:32.306Z,5.00
2019-04-03T22:46:00.744Z,4.90
2019-04-03T22:48:29.200Z,5.00
2019-04-03T22:50:57.688Z,5.10
2019-04-03T22:53:26.147Z,5.00
2019-04-03T22:55:54.958Z,4.90
2019-04-03T22:58:23.549Z,4.80
2019-04-03T23:00:51.996Z,4.80
2019-04-03T23:03:20.443Z,4.90
2019-04-03T23:05:48.930Z,4.80
2019-04-03T23:08:17.375Z,4.70
2019-04-03T23:10:45.808Z,4.70
2019-04-03T23:13:14.283Z,4.70
2019-04-03T23:15:42.733Z,4.60
2019-04-03T23:18:11.172Z,4.60
2019-04-03T23:20:39.657Z,4.60
2019-04-03T23:23:08.098Z,4.50
2019-04-03T23:25:36.754Z,4.40
2019-04-03T23:28:05.301Z,4.50
2019-04-03T23:30:33.774Z,4.70
2019-04-03T23:33:02.296Z,4.60
2019-04-03T23:35:30.774Z,4.50
2019-04-03T23:37:59.233Z,4.50
2019-04-03T23:40:27.751Z,4.40
2019-04-03T23:42:56.227Z,4.40
2019-04-03T23:45:27.791Z,4.30
2019-04-03T23:47:56.283Z,4.40
2019-04-03T23:50:24.807Z,4.40
2019-04-03T23:52:53.641Z,4.20
2019-04-03T23:55:22.355Z,4.30
2019-04-03T23:57:50.838Z,4.40
